createdAt,value
2023-05-13T00:09:58.270Z,96049.81
2023-05-13T00:24:59.866Z,96049.97
2023-05-13T00:40:01.479Z,96058.34
2023-05-13T00:55:03.095Z,96051.66
2023-05-13T01:10:04.758Z,96061.41
2023-05-13T01:25:06.625Z,96060.16
2023-05-13T01:40:20.505Z,96065.81
2023-05-13T01:55:31.147Z,96060.25
2023-05-13T02:10:35.156Z,96069.91
2023-05-13T02:25:36.832Z,96071.75
2023-05-13T02:40:38.494Z,96073.41
2023-05-13T03:11:14.092Z,96058.81
2023-05-13T03:26:16.695Z,96066.59
2023-05-13T03:41:19.655Z,96075.06
2023-05-13T03:56:22.333Z,96069.88
2023-05-13T04:11:24.089Z,96090.38
2023-05-13T04:26:26.047Z,96096.47
2023-05-13T04:41:27.699Z,96109.81
2023-05-13T04:56:29.387Z,96103.50
2023-05-13T05:11:31.328Z,96117.38
2023-05-13T05:26:33.049Z,96133.69
2023-05-13T05:41:36.525Z,96147.78
2023-05-13T05:56:38.294Z,96152.50
2023-05-13T06:11:40.539Z,96165.22
2023-05-13T06:26:42.217Z,96166.97
2023-05-13T06:41:44.072Z,96172.00
2023-05-13T06:56:49.949Z,96177.16
2023-05-13T07:11:51.560Z,96184.25
2023-05-13T07:26:53.153Z,96182.28
2023-05-13T07:41:55.246Z,96188.69
2023-05-13T07:56:56.875Z,96183.28
2023-05-13T08:11:58.469Z,96189.41
2023-05-13T08:27:00.123Z,96189.22
2023-05-13T08:42:03.101Z,96196.22
2023-05-13T08:57:05.056Z,96202.81
2023-05-13T09:12:06.696Z,96206.03
2023-05-13T09:27:08.273Z,96206.84
2023-05-13T09:42:09.825Z,96215.47
2023-05-13T09:57:11.436Z,96221.94
2023-05-13T10:12:13.143Z,96220.13
2023-05-13T10:27:14.749Z,96228.16
2023-05-13T10:42:16.316Z,96223.63
2023-05-13T10:57:18.516Z,96226.34
2023-05-13T11:12:20.285Z,96226.91
2023-05-13T11:27:21.892Z,96224.84
2023-05-13T11:42:23.523Z,96230.66
2023-05-13T11:57:25.200Z,96231.63
2023-05-13T12:12:27.174Z,96231.97
2023-05-13T12:27:28.773Z,96235.66
2023-05-13T12:42:30.425Z,96240.50
2023-05-13T15:43:25.937Z,96167.59
2023-05-13T15:58:27.530Z,96152.06
2023-05-13T16:13:29.154Z,96151.38
2023-05-13T16:28:30.760Z,96144.66
2023-05-13T16:43:32.343Z,96138.16
2023-05-13T16:58:33.924Z,96135.56
2023-05-13T17:13:35.537Z,96124.72
2023-05-13T17:28:38.325Z,96117.69
2023-05-13T17:43:39.929Z,96127.50
2023-05-13T17:58:41.510Z,96122.84
2023-05-13T18:13:43.131Z,96130.06
2023-05-13T18:28:45.154Z,96139.16
2023-05-13T18:43:46.753Z,96148.94
2023-05-13T18:58:48.376Z,96156.75
2023-05-13T19:13:49.933Z,96160.44
2023-05-13T19:28:51.505Z,96181.25
2023-05-13T19:43:53.248Z,96171.16
2023-05-13T19:58:54.840Z,96192.06
2023-05-13T20:13:58.370Z,96185.41
2023-05-13T20:28:59.954Z,96193.78
2023-05-13T20:44:01.613Z,96191.38
2023-05-13T20:59:03.210Z,96170.97
2023-05-13T21:14:04.799Z,96165.66
2023-05-13T21:29:06.429Z,96165.22
2023-05-13T21:44:08.176Z,96163.59
2023-05-13T21:59:09.766Z,96155.28
2023-05-13T22:14:11.328Z,96152.09
2023-05-13T22:29:12.884Z,96133.34
2023-05-13T22:44:14.457Z,96127.69
2023-05-13T22:59:16.109Z,96127.97
2023-05-13T23:14:18.023Z,96112.97
2023-05-13T23:29:19.609Z,96095.50
2023-05-13T23:44:21.248Z,96080.53
2023-05-13T23:59:22.820Z,96073.69
